createdAt,value
2023-04-03T00:01:36.281Z,9.00
2023-04-03T00:04:02.875Z,9.00
2023-04-03T00:06:29.411Z,8.90
2023-04-03T00:08:56.173Z,8.90
2023-04-03T00:11:22.716Z,8.80
2023-04-03T00:13:49.268Z,8.70
2023-04-03T00:16:16.026Z,8.70
2023-04-03T00:18:42.965Z,8.80
2023-04-03T00:21:10.702Z,8.80
2023-04-03T00:23:37.323Z,8.80
2023-04-03T00:26:03.890Z,8.70
2023-04-03T00:28:30.487Z,8.70
2023-04-03T00:30:57.077Z,8.60
2023-04-03T00:33:25.231Z,8.60
2023-04-03T00:35:52.094Z,8.50
2023-04-03T00:38:18.987Z,8.50
2023-04-03T00:40:46.757Z,8.50
2023-04-03T00:43:14.614Z,8.50
2023-04-03T00:45:45.249Z,8.50
2023-04-03T00:48:16.358Z,8.50
2023-04-03T00:50:43.394Z,8.50
2023-04-03T00:53:12.352Z,8.50
2023-04-03T00:55:39.384Z,8.50
2023-04-03T00:58:07.851Z,8.40
2023-04-03T01:00:34.951Z,8.30
2023-04-03T01:03:01.770Z,8.20
2023-04-03T01:05:28.258Z,8.10
2023-04-03T01:07:54.917Z,8.00
2023-04-03T01:10:22.392Z,8.00
2023-04-03T01:12:51.141Z,7.90
2023-04-03T01:15:23.614Z,7.90
2023-04-03T01:18:01.004Z,7.90
2023-04-03T01:20:37.276Z,7.80
2023-04-03T01:23:13.356Z,7.80
2023-04-03T01:25:44.926Z,7.70
2023-04-03T01:28:13.263Z,7.70
2023-04-03T01:30:51.532Z,7.60
2023-04-03T01:33:18.062Z,7.50
2023-04-03T01:35:44.511Z,7.50
2023-04-03T01:38:11.358Z,7.40
2023-04-03T01:40:39.012Z,7.50
2023-04-03T01:43:05.615Z,7.40
2023-04-03T01:45:32.111Z,7.20
2023-04-03T01:47:58.740Z,7.20
2023-04-03T01:50:25.228Z,7.30
2023-04-03T01:52:51.709Z,7.30
2023-04-03T01:55:18.202Z,7.30
2023-04-03T01:57:44.700Z,7.30
2023-04-03T02:00:11.369Z,7.40
2023-04-03T02:02:37.825Z,7.40
2023-04-03T02:05:04.453Z,7.30
2023-04-03T02:07:30.936Z,7.20
2023-04-03T02:09:57.455Z,7.10
2023-04-03T02:12:23.950Z,7.00
2023-04-03T02:14:50.626Z,6.90
2023-04-03T02:17:17.106Z,6.90
2023-04-03T02:19:43.960Z,6.80
2023-04-03T02:22:10.581Z,6.80
2023-04-03T02:24:37.123Z,6.80
2023-04-03T02:27:03.609Z,6.70
2023-04-03T02:29:30.072Z,6.80
2023-04-03T02:31:56.850Z,6.80
2023-04-03T02:34:23.321Z,6.80
2023-04-03T02:36:49.864Z,6.90
2023-04-03T02:39:16.806Z,6.90
2023-04-03T02:41:43.462Z,6.90
2023-04-03T02:44:11.055Z,6.80
2023-04-03T02:46:37.582Z,6.90
2023-04-03T02:49:04.598Z,6.80
2023-04-03T02:51:31.375Z,6.90
2023-04-03T02:53:57.851Z,6.80
2023-04-03T02:56:24.358Z,6.80
2023-04-03T02:58:50.970Z,6.80
2023-04-03T03:01:17.429Z,6.90
2023-04-03T03:03:43.921Z,6.90
2023-04-03T03:06:11.949Z,6.80
2023-04-03T03:08:38.526Z,6.80
2023-04-03T03:11:05.283Z,6.70
2023-04-03T03:13:32.410Z,6.70
2023-04-03T03:15:59.041Z,6.70
2023-04-03T03:18:25.842Z,6.70
2023-04-03T03:20:56.557Z,6.80
2023-04-03T03:23:24.009Z,6.70
2023-04-03T03:25:50.706Z,6.60
2023-04-03T03:28:17.196Z,6.60
2023-04-03T03:30:43.658Z,6.50
2023-04-03T03:33:10.371Z,6.50
2023-04-03T03:35:37.164Z,6.40
2023-04-03T03:38:03.825Z,6.40
2023-04-03T03:40:30.289Z,6.40
2023-04-03T03:42:56.738Z,6.40
2023-04-03T03:45:23.244Z,6.30
2023-04-03T03:47:49.786Z,6.10
2023-04-03T03:50:16.317Z,6.10
2023-04-03T03:52:42.771Z,6.10
2023-04-03T03:55:09.290Z,6.10
2023-04-03T03:57:36.054Z,6.00
2023-04-03T04:00:02.675Z,5.90
2023-04-03T04:02:29.318Z,5.90
2023-04-03T04:04:55.903Z,5.90
2023-04-03T04:07:22.419Z,6.00
2023-04-03T04:09:49.010Z,5.90
2023-04-03T04:12:15.543Z,5.90
2023-04-03T04:14:42.085Z,5.70
2023-04-03T04:17:08.674Z,5.60
2023-04-03T04:19:35.176Z,5.50
2023-04-03T04:22:01.858Z,5.40
2023-04-03T04:24:28.324Z,5.40
2023-04-03T04:26:54.907Z,5.40
2023-04-03T04:29:21.372Z,5.50
2023-04-03T04:31:47.894Z,5.50
2023-04-03T04:34:14.370Z,5.60
2023-04-03T04:36:41.004Z,5.60
2023-04-03T04:39:07.595Z,5.60
2023-04-03T04:41:34.200Z,5.70
2023-04-03T04:44:00.768Z,5.80
2023-04-03T04:46:27.377Z,5.90
2023-04-03T04:48:53.931Z,5.80
2023-04-03T04:51:20.375Z,5.70
2023-04-03T04:53:46.923Z,5.70
2023-04-03T04:56:13.454Z,5.60
2023-04-03T04:58:40.077Z,5.70
2023-04-03T05:01:07.789Z,5.70
2023-04-03T05:03:34.613Z,5.80
2023-04-03T05:06:01.093Z,5.80
2023-04-03T05:08:27.896Z,5.80
2023-04-03T05:10:56.067Z,5.70
2023-04-03T05:13:23.240Z,5.70
2023-04-03T05:15:49.760Z,5.70
2023-04-03T05:18:16.330Z,5.70
2023-04-03T05:20:44.246Z,5.70
2023-04-03T05:23:11.507Z,5.50
2023-04-03T05:25:38.740Z,5.50
2023-04-03T05:28:05.630Z,5.50
2023-04-03T05:30:32.101Z,5.40
2023-04-03T05:32:59.326Z,5.40
2023-04-03T05:35:25.969Z,5.30
2023-04-03T05:37:52.462Z,5.40
2023-04-03T05:40:19.489Z,5.40
2023-04-03T05:42:46.041Z,5.40
2023-04-03T05:45:12.549Z,5.40
2023-04-03T05:47:39.044Z,5.30
2023-04-03T05:50:05.948Z,5.30
2023-04-03T05:52:41.089Z,5.20
2023-04-03T05:55:07.889Z,5.10
2023-04-03T05:57:34.510Z,5.10
2023-04-03T06:00:01.029Z,5.00
2023-04-03T06:02:27.951Z,5.00
2023-04-03T06:04:54.695Z,5.10
2023-04-03T06:07:23.530Z,5.20
2023-04-03T06:09:51.999Z,5.20
2023-04-03T06:12:18.937Z,5.20
2023-04-03T06:14:45.713Z,5.20
2023-04-03T06:17:13.184Z,5.30
2023-04-03T06:19:39.961Z,5.30
2023-04-03T06:22:06.546Z,5.40
2023-04-03T06:24:33.054Z,5.50
2023-04-03T06:27:00.159Z,5.50
2023-04-03T06:29:26.624Z,5.40
2023-04-03T06:31:53.191Z,5.40
2023-04-03T06:34:19.677Z,5.50
2023-04-03T06:36:46.211Z,5.50
2023-04-03T06:39:14.790Z,5.50
2023-04-03T06:41:41.225Z,5.40
2023-04-03T06:44:11.751Z,5.50
2023-04-03T06:46:39.107Z,5.60
2023-04-03T06:49:08.354Z,5.70
2023-04-03T06:51:35.537Z,5.60
2023-04-03T06:54:02.595Z,5.60
2023-04-03T06:56:29.084Z,5.70
2023-04-03T06:58:56.646Z,5.70
2023-04-03T07:01:23.992Z,5.70
2023-04-03T07:03:50.441Z,5.70
2023-04-03T07:06:17.928Z,5.70
2023-04-03T07:08:44.951Z,5.70
2023-04-03T07:11:11.746Z,5.80
2023-04-03T07:13:38.568Z,5.90
2023-04-03T07:16:06.331Z,6.00
2023-04-03T07:18:33.155Z,6.00
2023-04-03T07:20:59.792Z,6.00
2023-04-03T07:23:26.353Z,6.00
2023-04-03T07:25:53.130Z,6.10
2023-04-03T07:28:20.687Z,6.20
2023-04-03T07:30:51.530Z,6.30
2023-04-03T07:33:18.918Z,6.30
2023-04-03T07:35:45.978Z,6.40
2023-04-03T07:38:12.928Z,6.40
2023-04-03T07:40:39.815Z,6.40
2023-04-03T07:43:06.666Z,6.40
2023-04-03T07:45:35.616Z,6.40
2023-04-03T07:48:02.781Z,6.50
2023-04-03T07:50:31.094Z,6.70
2023-04-03T07:52:58.559Z,6.80
2023-04-03T07:55:25.602Z,6.80
2023-04-03T07:57:52.249Z,6.70
2023-04-03T08:00:20.506Z,6.70
2023-04-03T08:02:52.531Z,6.80
2023-04-03T08:05:20.112Z,7.00
2023-04-03T08:07:47.345Z,7.10
2023-04-03T08:10:14.326Z,7.20
2023-04-03T08:12:40.879Z,7.30
2023-04-03T08:15:08.253Z,7.30
2023-04-03T08:17:35.617Z,7.30
2023-04-03T08:20:02.447Z,7.30
2023-04-03T08:22:28.978Z,7.40
2023-04-03T08:24:59.556Z,7.40
2023-04-03T08:27:28.035Z,7.40
2023-04-03T08:29:54.500Z,7.40
2023-04-03T08:32:21.009Z,7.40
2023-04-03T08:34:47.741Z,7.50
2023-04-03T08:37:14.249Z,7.40
2023-04-03T08:39:40.923Z,7.40
2023-04-03T08:42:16.306Z,7.40
2023-04-03T08:44:42.762Z,7.40
2023-04-03T08:47:09.212Z,7.50
2023-04-03T08:49:48.604Z,7.60
2023-04-03T08:52:18.779Z,7.50
2023-04-03T08:55:00.743Z,7.50
2023-04-03T08:57:39.576Z,7.50
2023-04-03T09:00:08.780Z,7.30
2023-04-03T09:02:42.504Z,7.20
2023-04-03T09:05:14.708Z,7.20
2023-04-03T09:07:44.330Z,7.10
2023-04-03T09:10:13.033Z,7.00
2023-04-03T09:12:42.239Z,6.90
2023-04-03T09:15:17.932Z,6.70
2023-04-03T09:17:44.858Z,6.70
2023-04-03T09:20:30.711Z,6.80
2023-04-03T09:22:58.139Z,6.90
2023-04-03T09:25:26.977Z,6.90
2023-04-03T09:27:53.899Z,6.80
2023-04-03T09:30:22.336Z,6.80
2023-04-03T09:32:50.265Z,6.80
2023-04-03T09:35:32.862Z,6.80
2023-04-03T09:38:09.583Z,6.90
2023-04-03T09:40:39.482Z,7.10
2023-04-03T09:43:18.312Z,7.10
2023-04-03T09:45:45.625Z,7.10
2023-04-03T09:48:16.283Z,6.90
2023-04-03T09:50:57.512Z,6.90
2023-04-03T09:53:28.965Z,7.00
2023-04-03T09:55:55.744Z,7.20
2023-04-03T09:58:28.092Z,7.40
2023-04-03T10:00:59.488Z,7.40
2023-04-03T10:03:28.160Z,7.50
2023-04-03T10:05:55.382Z,7.30
2023-04-03T10:08:24.883Z,7.00
2023-04-03T10:11:06.645Z,7.10
2023-04-03T10:13:36.281Z,7.20
2023-04-03T10:16:11.944Z,7.20
2023-04-03T10:18:55.963Z,7.00
2023-04-03T10:21:33.456Z,6.90
2023-04-03T10:24:11.650Z,7.00
2023-04-03T10:26:38.404Z,6.80
2023-04-03T10:29:12.791Z,6.70
2023-04-03T10:31:46.876Z,6.80
2023-04-03T10:34:20.978Z,7.00
2023-04-03T10:37:02.538Z,7.00
2023-04-03T10:39:32.809Z,7.10
2023-04-03T10:42:15.313Z,7.30
2023-04-03T10:45:02.112Z,7.50
2023-04-03T10:47:39.517Z,7.20
2023-04-03T10:50:06.461Z,7.20
2023-04-03T10:52:42.662Z,7.00
2023-04-03T10:55:21.504Z,7.00
2023-04-03T10:57:48.557Z,7.20
2023-04-03T11:00:23.761Z,6.90
2023-04-03T11:03:01.373Z,6.80
2023-04-03T11:05:48.086Z,6.70
2023-04-03T11:08:35.062Z,6.80
2023-04-03T11:11:05.475Z,7.10
2023-04-03T11:13:36.601Z,7.20
2023-04-03T11:16:03.600Z,7.20
2023-04-03T11:18:41.536Z,7.30
2023-04-03T11:21:15.228Z,7.30
2023-04-03T11:23:49.528Z,7.30
2023-04-03T11:26:18.680Z,7.30
2023-04-03T11:28:46.763Z,7.20
2023-04-03T11:31:13.209Z,7.30
2023-04-03T11:33:42.809Z,7.40
2023-04-03T11:36:31.420Z,7.40
2023-04-03T11:39:10.676Z,7.50
2023-04-03T11:41:37.233Z,7.30
2023-04-03T11:44:03.719Z,7.10
2023-04-03T11:46:49.035Z,7.00
2023-04-03T11:49:34.496Z,6.90
2023-04-03T11:52:00.981Z,6.80
2023-04-03T11:54:46.855Z,6.90
2023-04-03T11:57:32.313Z,7.00
2023-04-03T11:59:58.815Z,7.10
2023-04-03T12:02:51.151Z,7.00
2023-04-03T12:05:30.837Z,7.00
2023-04-03T12:08:30.300Z,6.90
2023-04-03T12:11:14.897Z,7.00
2023-04-03T12:13:42.577Z,7.20
2023-04-03T12:16:27.786Z,7.40
2023-04-03T12:18:54.399Z,7.40
2023-04-03T12:21:22.571Z,7.40
2023-04-03T12:24:07.713Z,7.30
2023-04-03T12:26:52.996Z,7.30
2023-04-03T12:29:25.523Z,7.30
2023-04-03T12:32:04.154Z,7.30
2023-04-03T12:34:30.701Z,7.40
2023-04-03T12:37:16.347Z,7.50
2023-04-03T12:40:05.851Z,7.50
2023-04-03T12:42:57.357Z,7.60
2023-04-03T12:45:24.736Z,7.70
2023-04-03T12:47:53.052Z,7.70
2023-04-03T12:50:20.497Z,7.80
2023-04-03T12:52:50.893Z,8.00
2023-04-03T12:55:18.776Z,8.10
2023-04-03T12:57:45.612Z,8.00
2023-04-03T13:00:22.979Z,7.90
2023-04-03T13:02:49.747Z,7.90
2023-04-03T13:05:18.960Z,8.00
2023-04-03T13:07:49.371Z,8.00
2023-04-03T13:10:17.024Z,8.00
2023-04-03T13:12:51.603Z,8.00
2023-04-03T13:15:25.862Z,8.10
2023-04-03T13:17:53.672Z,8.10
2023-04-03T13:20:27.934Z,8.00
2023-04-03T13:22:57.962Z,8.00
2023-04-03T13:25:25.497Z,7.90
2023-04-03T13:27:53.916Z,7.80
2023-04-03T13:30:26.004Z,7.70
2023-04-03T13:32:52.548Z,7.70
2023-04-03T13:35:45.266Z,7.60
2023-04-03T13:38:17.790Z,7.50
2023-04-03T13:40:48.896Z,7.50
2023-04-03T13:43:19.889Z,7.50
2023-04-03T13:46:07.198Z,7.40
2023-04-03T13:48:41.232Z,7.50
2023-04-03T13:51:18.176Z,7.50
2023-04-03T13:53:46.111Z,7.50
2023-04-03T13:56:27.604Z,7.70
2023-04-03T13:58:59.000Z,7.80
2023-04-03T14:01:26.346Z,7.80
2023-04-03T14:03:55.252Z,7.80
2023-04-03T14:06:21.721Z,7.80
2023-04-03T14:08:49.871Z,7.70
2023-04-03T14:11:18.759Z,7.60
2023-04-03T14:13:45.753Z,7.60
2023-04-03T14:16:17.503Z,7.60
2023-04-03T14:18:45.305Z,7.50
2023-04-03T14:21:12.885Z,7.30
2023-04-03T14:23:39.729Z,7.20
2023-04-03T14:26:11.359Z,7.20
2023-04-03T14:28:38.176Z,7.20
2023-04-03T14:31:04.736Z,7.20
2023-04-03T14:33:35.565Z,7.10
2023-04-03T14:36:03.431Z,7.10
2023-04-03T14:38:31.505Z,7.10
2023-04-03T14:41:06.313Z,7.20
2023-04-03T14:43:40.532Z,7.10
2023-04-03T14:46:21.684Z,7.10
2023-04-03T14:48:48.245Z,7.10
2023-04-03T14:51:15.588Z,7.00
2023-04-03T14:53:43.315Z,7.00
2023-04-03T14:56:14.160Z,7.00
2023-04-03T14:58:40.874Z,6.90
2023-04-03T15:01:07.372Z,6.90
2023-04-03T15:03:34.029Z,7.00
2023-04-03T15:06:00.640Z,7.00
2023-04-03T15:08:28.036Z,7.00
2023-04-03T15:10:56.493Z,7.10
2023-04-03T15:13:23.590Z,7.00
2023-04-03T15:15:50.946Z,6.90
2023-04-03T15:18:24.836Z,7.00
2023-04-03T15:20:51.400Z,7.00
2023-04-03T15:23:18.037Z,7.00
2023-04-03T15:25:45.587Z,7.10
2023-04-03T15:28:18.611Z,7.00
2023-04-03T15:30:45.229Z,7.00
2023-04-03T15:33:11.769Z,7.10
2023-04-03T15:35:38.502Z,7.00
2023-04-03T15:38:05.339Z,7.00
2023-04-03T15:40:31.822Z,7.00
2023-04-03T15:42:58.377Z,7.00
2023-04-03T15:45:24.993Z,6.90
2023-04-03T15:47:51.681Z,6.90
2023-04-03T15:50:18.269Z,6.90
2023-04-03T15:52:44.760Z,6.90
2023-04-03T15:55:11.224Z,6.90
2023-04-03T16:00:09.595Z,6.80
2023-04-03T16:02:36.444Z,6.80
2023-04-03T16:05:03.334Z,6.80
2023-04-03T16:07:29.858Z,6.80
2023-04-03T16:09:56.475Z,6.70
2023-04-03T16:12:23.011Z,6.70
2023-04-03T16:14:49.493Z,6.70
2023-04-03T16:17:16.024Z,6.70
2023-04-03T16:19:42.502Z,6.70
2023-04-03T16:22:08.986Z,6.70
2023-04-03T16:24:36.528Z,6.70
2023-04-03T16:27:03.031Z,6.80
2023-04-03T16:29:29.504Z,6.80
2023-04-03T16:31:57.134Z,6.80
2023-04-03T16:34:24.197Z,6.80
2023-04-03T16:36:50.761Z,6.80
2023-04-03T16:39:17.370Z,6.80
2023-04-03T16:41:43.825Z,6.80
2023-04-03T16:44:10.565Z,6.80
2023-04-03T16:46:37.389Z,6.70
2023-04-03T16:49:04.148Z,6.70
2023-04-03T16:51:30.990Z,6.70
2023-04-03T16:53:57.526Z,6.60
2023-04-03T16:56:24.506Z,6.50
2023-04-03T16:58:51.060Z,6.50
2023-04-03T17:01:19.409Z,6.50
2023-04-03T17:03:46.286Z,6.50
2023-04-03T17:06:16.965Z,6.60
2023-04-03T17:08:44.114Z,6.60
2023-04-03T17:11:10.722Z,6.50
2023-04-03T17:13:37.276Z,6.50
2023-04-03T17:16:06.504Z,6.50
2023-04-03T17:18:33.853Z,6.60
2023-04-03T17:21:01.071Z,6.60
2023-04-03T17:23:29.087Z,6.60
2023-04-03T17:25:55.985Z,6.60
2023-04-03T17:28:28.073Z,6.60
2023-04-03T17:30:55.443Z,6.60
2023-04-03T17:33:22.233Z,6.60
2023-04-03T17:35:48.819Z,6.50
2023-04-03T17:38:15.500Z,6.60
2023-04-03T17:40:43.212Z,6.50
2023-04-03T17:43:11.480Z,6.50
2023-04-03T17:45:38.543Z,6.50
2023-04-03T17:48:05.677Z,6.40
2023-04-03T17:50:32.492Z,6.30
2023-04-03T17:52:59.172Z,6.20
2023-04-03T17:55:25.785Z,6.20
2023-04-03T17:57:52.373Z,6.20
2023-04-03T18:00:19.003Z,6.30
2023-04-03T18:02:45.673Z,6.20
2023-04-03T18:05:12.204Z,6.20
2023-04-03T18:07:39.072Z,6.20
2023-04-03T18:10:06.844Z,6.20
2023-04-03T18:12:33.362Z,6.20
2023-04-03T18:15:00.081Z,6.20
2023-04-03T18:17:29.308Z,6.20
2023-04-03T18:19:56.120Z,6.20
2023-04-03T18:22:23.795Z,6.20
2023-04-03T18:24:50.943Z,6.20
2023-04-03T18:27:19.153Z,6.10
2023-04-03T18:29:47.685Z,6.20
2023-04-03T18:32:16.275Z,6.10
2023-04-03T18:34:42.781Z,6.10
2023-04-03T18:37:09.335Z,6.10
2023-04-03T18:39:36.074Z,6.10
2023-04-03T18:42:08.219Z,6.10
2023-04-03T18:44:36.208Z,6.10
2023-04-03T18:47:02.690Z,6.10
2023-04-03T18:49:29.938Z,6.10
2023-04-03T18:51:56.552Z,6.10
2023-04-03T18:54:23.071Z,6.00
2023-04-03T18:56:49.549Z,5.90
2023-04-03T18:59:16.082Z,5.90
2023-04-03T19:01:42.659Z,5.90
2023-04-03T19:04:09.283Z,5.80
2023-04-03T19:06:37.034Z,5.90
2023-04-03T19:09:04.922Z,5.90
2023-04-03T19:11:31.577Z,5.80
2023-04-03T19:14:14.577Z,5.80
2023-04-03T19:16:43.237Z,5.80
2023-04-03T19:19:09.791Z,5.80
2023-04-03T19:21:40.669Z,5.70
2023-04-03T19:24:08.096Z,5.80
2023-04-03T19:26:34.610Z,5.80
2023-04-03T19:29:01.325Z,5.80
2023-04-03T19:31:28.034Z,5.90
2023-04-03T19:33:55.773Z,5.80
2023-04-03T19:36:22.461Z,5.80
2023-04-03T19:38:48.941Z,5.80
2023-04-03T19:41:19.651Z,5.80
2023-04-03T19:43:48.102Z,5.80
2023-04-03T19:46:14.828Z,5.70
2023-04-03T19:48:41.423Z,5.70
2023-04-03T19:51:08.752Z,5.70
2023-04-03T19:53:35.498Z,5.70
2023-04-03T19:56:02.058Z,5.70
2023-04-03T19:58:30.010Z,5.70
2023-04-03T20:00:57.343Z,5.70
2023-04-03T20:03:24.321Z,5.70
2023-04-03T20:05:51.111Z,5.60
2023-04-03T20:08:17.911Z,5.60
2023-04-03T20:10:44.585Z,5.50
2023-04-03T20:13:12.143Z,5.50
2023-04-03T20:15:41.891Z,5.50
2023-04-03T20:18:10.044Z,5.40
2023-04-03T20:20:41.805Z,5.40
2023-04-03T20:23:11.241Z,5.40
2023-04-03T20:25:50.605Z,5.30
2023-04-03T20:28:22.063Z,5.20
2023-04-03T20:30:51.146Z,5.30
2023-04-03T20:33:18.686Z,5.30
2023-04-03T20:35:47.096Z,5.20
2023-04-03T20:38:13.972Z,5.20
2023-04-03T20:40:40.677Z,5.20
2023-04-03T20:43:07.715Z,5.20
2023-04-03T20:45:34.752Z,5.20
2023-04-03T20:48:03.376Z,5.20
2023-04-03T20:50:30.486Z,5.20
2023-04-03T20:52:57.575Z,5.10
2023-04-03T20:55:24.301Z,5.00
2023-04-03T20:57:54.542Z,5.00
2023-04-03T21:00:21.454Z,5.00
2023-04-03T21:02:48.005Z,4.90
2023-04-03T21:05:15.684Z,4.80
2023-04-03T21:08:01.778Z,4.80
2023-04-03T21:10:47.460Z,4.90
2023-04-03T21:13:32.534Z,4.90
2023-04-03T21:15:59.865Z,4.80
2023-04-03T21:18:43.998Z,4.80
2023-04-03T21:21:17.475Z,4.80
2023-04-03T21:23:45.110Z,4.80
2023-04-03T21:26:11.614Z,4.70
2023-04-03T21:28:38.162Z,4.70
2023-04-03T21:31:04.690Z,4.60
2023-04-03T21:33:31.587Z,4.70
2023-04-03T21:35:59.671Z,4.60
2023-04-03T21:38:27.204Z,4.60
2023-04-03T21:40:57.796Z,4.50
2023-04-03T21:43:24.954Z,4.40
2023-04-03T21:45:55.729Z,4.40
2023-04-03T21:48:23.150Z,4.40
2023-04-03T21:50:52.156Z,4.50
2023-04-03T21:53:20.429Z,4.50
2023-04-03T21:55:54.231Z,4.50
2023-04-03T21:58:20.978Z,4.40
2023-04-03T22:00:47.604Z,4.40
2023-04-03T22:03:18.773Z,4.40
2023-04-03T22:05:45.292Z,4.30
2023-04-03T22:08:11.924Z,4.30
2023-04-03T22:10:40.927Z,4.30
2023-04-03T22:13:07.741Z,4.20
2023-04-03T22:15:42.788Z,4.20
2023-04-03T22:18:10.075Z,4.20
2023-04-03T22:20:36.642Z,4.10
2023-04-03T22:23:03.127Z,4.10
2023-04-03T22:25:29.585Z,4.00
2023-04-03T22:27:56.054Z,4.00
2023-04-03T22:30:22.938Z,4.00
2023-04-03T22:32:49.847Z,4.00
2023-04-03T22:35:16.426Z,4.00
2023-04-03T22:37:42.907Z,4.00
2023-04-03T22:40:09.716Z,4.00
2023-04-03T22:42:36.200Z,4.00
2023-04-03T22:45:03.131Z,4.00
2023-04-03T22:47:29.614Z,3.90
2023-04-03T22:49:56.130Z,3.80
2023-04-03T22:52:22.707Z,3.80
2023-04-03T22:54:49.217Z,3.80
2023-04-03T22:57:16.031Z,3.80
2023-04-03T22:59:42.472Z,3.80
2023-04-03T23:02:08.957Z,3.80
2023-04-03T23:04:35.462Z,3.80
2023-04-03T23:07:02.161Z,3.80
2023-04-03T23:09:28.805Z,3.80
2023-04-03T23:11:55.250Z,3.80
2023-04-03T23:14:22.579Z,3.80
2023-04-03T23:16:49.114Z,3.80
2023-04-03T23:19:15.603Z,3.80
2023-04-03T23:21:42.125Z,3.80
2023-04-03T23:24:08.699Z,3.70
2023-04-03T23:26:35.138Z,3.60
2023-04-03T23:29:01.707Z,3.70
2023-04-03T23:31:28.224Z,3.70
2023-04-03T23:33:54.776Z,3.70
2023-04-03T23:36:21.579Z,3.70
2023-04-03T23:38:48.091Z,3.70
2023-04-03T23:41:14.630Z,3.60
2023-04-03T23:43:42.206Z,3.50
2023-04-03T23:46:08.779Z,3.50
2023-04-03T23:48:35.292Z,3.50
2023-04-03T23:51:01.784Z,3.60
2023-04-03T23:53:28.514Z,3.60
2023-04-03T23:55:55.030Z,3.50
2023-04-03T23:58:21.607Z,3.50
